Time;durP1;ratioP1;P1;durP2;ratioP2;P2;SDS_P1;SDS_P2;PMS_P1;PMS_P2;Temp;Humidity;BMP_temperature;BMP_pressure;BME280_temperature;BME280_humidity;BME280_pressure;Samples;Min_cycle;Max_cycle;Signal;HPM_P1;HPM_P2
2021/12/03 00:01:06;;;;;;;;;;;2.80;99.90;;;;;;5010923;28;20362;-72
2021/12/03 00:03:32;;;;;;;;;;;2.80;99.90;;;;;;5017864;28;19913;-73
2021/12/03 00:05:58;;;;;;;;;;;2.80;99.90;;;;;;5015596;28;20263;-73
2021/12/03 00:08:25;;;;;;;;;;;2.80;99.90;;;;;;5012370;28;19921;-71
2021/12/03 00:10:55;;;;;;;;;;;2.90;99.90;;;;;;5010048;28;19993;-72
2021/12/03 00:13:20;;;;;;;;;;;2.90;99.90;;;;;;5012757;28;19965;-72
2021/12/03 00:15:46;;;;;;;;;;;2.80;99.90;;;;;;5014771;28;19920;-72
2021/12/03 00:18:12;;;;;;;;;;;2.80;99.90;;;;;;5013135;28;19913;-72
2021/12/03 00:20:39;;;;;;;;;;;2.90;99.90;;;;;;5012011;28;19914;-72
2021/12/03 00:23:04;;;;;;;;;;;2.80;99.90;;;;;;5011590;28;19914;-72
2021/12/03 00:25:30;;;;;;;;;;;2.80;99.90;;;;;;5010099;28;19921;-71
2021/12/03 00:27:56;;;;;;;;;;;2.80;99.90;;;;;;5009933;28;20533;-73
2021/12/03 00:30:21;;;;;;;;;;;2.80;99.90;;;;;;5013230;28;19948;-71
2021/12/03 00:32:47;;;;;;;;;;;2.80;99.90;;;;;;5013754;28;20009;-72
2021/12/03 00:35:13;;;;;;;;;;;2.90;99.90;;;;;;5012753;28;20008;-72
2021/12/03 00:37:39;;;;;;;;;;;2.90;99.90;;;;;;5030357;28;19909;-71
2021/12/03 00:40:06;;;;;;;;;;;2.90;99.90;;;;;;5032870;28;19989;-71
2021/12/03 00:42:32;;;;;;;;;;;2.90;99.90;;;;;;5037741;28;20366;-72
2021/12/03 00:44:58;;;;;;;;;;;2.90;99.90;;;;;;5029137;28;19975;-72
2021/12/03 00:47:25;;;;;;;;;;;2.90;99.90;;;;;;5012820;28;19913;-72
2021/12/03 00:49:51;;;;;;;;;;;2.90;99.90;;;;;;5026251;28;19916;-72
2021/12/03 00:52:17;;;;;;;;;;;3.00;99.90;;;;;;5011187;28;19910;-71
2021/12/03 00:54:42;;;;;;;;;;;3.00;99.90;;;;;;5009711;28;19916;-72
2021/12/03 00:57:08;;;;;;;;;;;3.00;99.90;;;;;;5009927;28;19913;-72
2021/12/03 00:59:34;;;;;;;;;;;3.00;99.90;;;;;;5010512;28;19909;-71
2021/12/03 01:02:00;;;;;;;;;;;2.90;99.90;;;;;;5010795;28;19917;-72
2021/12/03 01:04:25;;;;;;;;;;;3.00;99.90;;;;;;5024788;28;19925;-72
2021/12/03 01:06:50;;;;;;;;;;;3.00;99.90;;;;;;5020133;28;19960;-72
2021/12/03 01:09:16;;;;;;;;;;;2.90;99.90;;;;;;5009544;28;20004;-73
2021/12/03 01:11:41;;;;;;;;;;;2.90;99.90;;;;;;5009862;28;19909;-72
2021/12/03 01:14:07;;;;;;;;;;;3.00;99.90;;;;;;5009469;28;20342;-72
2021/12/03 01:16:33;;;;;;;;;;;3.00;99.90;;;;;;5008998;28;19910;-72
2021/12/03 01:18:59;;;;;;;;;;;2.80;99.90;;;;;;5008438;28;19927;-71
2021/12/03 01:21:24;;;;;;;;;;;2.70;99.90;;;;;;5009027;28;19996;-71
2021/12/03 01:23:50;;;;;;;;;;;2.80;99.90;;;;;;5008742;28;20509;-72
2021/12/03 01:26:16;;;;;;;;;;;2.90;99.90;;;;;;5009242;28;19929;-72
2021/12/03 01:28:42;;;;;;;;;;;2.90;99.90;;;;;;5009752;28;19942;-72
2021/12/03 01:31:07;;;;;;;;;;;3.00;99.90;;;;;;5009840;28;19909;-73
2021/12/03 01:33:33;;;;;;;;;;;3.00;99.90;;;;;;5009301;28;19921;-71
2021/12/03 01:35:58;;;;;;;;;;;2.90;99.90;;;;;;5009319;28;20313;-73
2021/12/03 01:38:24;;;;;;;;;;;3.00;99.90;;;;;;5008836;28;19913;-72
2021/12/03 01:40:49;;;;;;;;;;;3.00;99.90;;;;;;5018287;28;19917;-72
2021/12/03 01:43:22;;;;;;;;;;;3.00;99.90;;;;;;5010234;28;19913;-72
2021/12/03 01:45:47;;;;;;;;;;;3.00;99.90;;;;;;5023748;28;20019;-72
2021/12/03 01:48:13;;;;;;;;;;;3.00;99.90;;;;;;5009100;28;19972;-72
2021/12/03 01:50:40;;;;;;;;;;;3.00;99.90;;;;;;5008662;28;19925;-72
2021/12/03 01:53:07;;;;;;;;;;;3.00;99.90;;;;;;5014897;28;19913;-71
2021/12/03 01:55:33;;;;;;;;;;;3.00;99.90;;;;;;5029303;28;20008;-72
2021/12/03 01:57:58;;;;;;;;;;;3.00;99.90;;;;;;5009409;28;20000;-73
2021/12/03 02:00:26;;;;;;;;;;;3.00;99.90;;;;;;5023564;28;20403;-73
2021/12/03 02:02:52;;;;;;;;;;;3.00;99.90;;;;;;5008367;28;19917;-73
2021/12/03 02:05:17;;;;;;;;;;;2.90;99.90;;;;;;5025239;28;19917;-74
2021/12/03 02:07:44;;;;;;;;;;;2.90;99.90;;;;;;5028244;28;20405;-73
2021/12/03 02:10:10;;;;;;;;;;;3.00;99.90;;;;;;5028731;28;19917;-73
2021/12/03 02:12:35;;;;;;;;;;;2.90;99.90;;;;;;5017297;28;19909;-73
2021/12/03 02:15:01;;;;;;;;;;;2.90;99.90;;;;;;5027894;28;19909;-74
2021/12/03 02:17:26;;;;;;;;;;;2.90;99.90;;;;;;5026558;28;20482;-73
2021/12/03 02:19:52;;;;;;;;;;;2.90;99.90;;;;;;5017721;28;19921;-75
2021/12/03 02:22:18;;;;;;;;;;;2.80;99.90;;;;;;5035006;28;19995;-73
2021/12/03 02:24:43;;;;;;;;;;;2.80;99.90;;;;;;5015736;28;19917;-73
2021/12/03 02:27:09;;;;;;;;;;;2.70;99.90;;;;;;5007985;28;19917;-72
2021/12/03 02:29:34;;;;;;;;;;;2.80;99.90;;;;;;5006864;28;19995;-73
2021/12/03 02:32:00;;;;;;;;;;;2.80;99.90;;;;;;5007676;28;19913;-72
2021/12/03 02:34:25;;;;;;;;;;;2.70;99.90;;;;;;5007439;28;20008;-75
2021/12/03 02:36:51;;;;;;;;;;;2.80;99.90;;;;;;5007988;28;19952;-73
2021/12/03 02:39:16;;;;;;;;;;;2.80;99.90;;;;;;5016233;28;20394;-72
2021/12/03 02:41:42;;;;;;;;;;;2.70;99.90;;;;;;5026043;28;19948;-73
2021/12/03 02:44:07;;;;;;;;;;;2.70;99.90;;;;;;5007759;28;20177;-73
2021/12/03 02:46:33;;;;;;;;;;;2.70;99.90;;;;;;5006879;28;20008;-73
2021/12/03 02:48:58;;;;;;;;;;;2.70;99.90;;;;;;5007450;28;19916;-73
2021/12/03 02:51:24;;;;;;;;;;;2.70;99.90;;;;;;5008142;28;19909;-74
2021/12/03 02:53:49;;;;;;;;;;;2.80;99.90;;;;;;5009256;28;20008;-73
2021/12/03 02:56:15;;;;;;;;;;;2.70;99.90;;;;;;5012330;28;19916;-72
2021/12/03 02:58:40;;;;;;;;;;;2.70;99.90;;;;;;5021982;28;19909;-73
2021/12/03 03:01:07;;;;;;;;;;;2.80;99.90;;;;;;5031013;28;19913;-73
2021/12/03 03:03:32;;;;;;;;;;;2.90;99.90;;;;;;5030118;28;19971;-73
2021/12/03 03:05:59;;;;;;;;;;;2.80;99.90;;;;;;5014465;28;19960;-73
2021/12/03 03:08:25;;;;;;;;;;;2.80;99.90;;;;;;5032231;28;19955;-73
2021/12/03 03:10:50;;;;;;;;;;;2.70;99.90;;;;;;5030557;28;19909;-71
2021/12/03 03:13:16;;;;;;;;;;;2.70;99.90;;;;;;5032018;28;20385;-72
2021/12/03 03:15:42;;;;;;;;;;;2.70;99.90;;;;;;5048686;28;19909;-72
2021/12/03 03:18:09;;;;;;;;;;;2.70;99.90;;;;;;5038236;28;19909;-73
2021/12/03 03:20:37;;;;;;;;;;;2.80;99.90;;;;;;5028323;28;19909;-73
2021/12/03 03:23:02;;;;;;;;;;;2.80;99.90;;;;;;5012056;28;19963;-72
2021/12/03 03:25:27;;;;;;;;;;;2.90;99.90;;;;;;5011603;28;19914;-73
2021/12/03 03:27:53;;;;;;;;;;;2.90;99.90;;;;;;5024749;28;19964;-74
2021/12/03 03:30:19;;;;;;;;;;;2.90;99.90;;;;;;5018617;28;19918;-72
2021/12/03 03:32:44;;;;;;;;;;;2.90;99.90;;;;;;5016186;28;19913;-73
2021/12/03 03:35:10;;;;;;;;;;;2.90;99.90;;;;;;5011322;28;20440;-72
2021/12/03 03:37:35;;;;;;;;;;;3.00;99.90;;;;;;5010880;28;19910;-73
2021/12/03 03:40:02;;;;;;;;;;;3.00;99.90;;;;;;5011912;28;19913;-70
2021/12/03 03:42:28;;;;;;;;;;;3.00;99.90;;;;;;5012488;28;19914;-73
2021/12/03 03:44:54;;;;;;;;;;;3.10;99.90;;;;;;5020218;28;19928;-72
2021/12/03 03:47:19;;;;;;;;;;;3.10;99.90;;;;;;5011802;28;19936;-73
2021/12/03 03:49:45;;;;;;;;;;;3.20;99.90;;;;;;5011513;28;19915;-73
2021/12/03 03:52:10;;;;;;;;;;;3.20;99.90;;;;;;5013395;28;19976;-73
2021/12/03 03:54:36;;;;;;;;;;;3.20;99.90;;;;;;5011847;28;19909;-71
2021/12/03 03:57:02;;;;;;;;;;;3.30;99.90;;;;;;5019440;28;19921;-72
2021/12/03 03:59:28;;;;;;;;;;;3.20;99.90;;;;;;5042694;28;19909;-73
2021/12/03 04:01:53;;;;;;;;;;;3.30;99.90;;;;;;5010578;28;20381;-73
2021/12/03 04:04:21;;;;;;;;;;;3.30;99.90;;;;;;5009932;28;20386;-73
2021/12/03 04:06:47;;;;;;;;;;;3.40;99.90;;;;;;5011502;28;19930;-72
2021/12/03 04:09:13;;;;;;;;;;;3.30;99.90;;;;;;5009890;28;19959;-72
2021/12/03 04:11:38;;;;;;;;;;;3.40;99.90;;;;;;5010293;28;20030;-72
2021/12/03 04:14:04;;;;;;;;;;;3.40;99.90;;;;;;5009944;28;19914;-73
2021/12/03 04:16:30;;;;;;;;;;;3.50;99.90;;;;;;5009668;28;20411;-73
2021/12/03 04:18:57;;;;;;;;;;;3.50;99.90;;;;;;5001731;28;20022;-73
2021/12/03 04:21:22;;;;;;;;;;;3.50;99.90;;;;;;5009569;28;19909;-73
2021/12/03 04:23:48;;;;;;;;;;;3.50;99.90;;;;;;5024739;28;20401;-72
2021/12/03 04:26:13;;;;;;;;;;;3.50;99.90;;;;;;5009441;28;20015;-73
2021/12/03 04:28:39;;;;;;;;;;;3.50;99.90;;;;;;5009007;28;19922;-73
2021/12/03 04:31:04;;;;;;;;;;;3.60;99.90;;;;;;5009516;28;19913;-74
2021/12/03 04:33:30;;;;;;;;;;;3.60;99.90;;;;;;5009476;28;19916;-73
2021/12/03 04:35:55;;;;;;;;;;;3.60;99.90;;;;;;5008799;28;20581;-72
2021/12/03 04:38:21;;;;;;;;;;;3.60;99.90;;;;;;5007367;28;19914;-71
2021/12/03 04:40:47;;;;;;;;;;;3.60;99.90;;;;;;5010056;28;19909;-72
2021/12/03 04:43:13;;;;;;;;;;;3.60;99.90;;;;;;5007883;28;19913;-72
2021/12/03 04:45:38;;;;;;;;;;;3.60;99.90;;;;;;5006109;28;19924;-71
2021/12/03 04:48:04;;;;;;;;;;;3.60;99.90;;;;;;5006823;28;19914;-72
2021/12/03 04:50:32;;;;;;;;;;;3.60;99.90;;;;;;5007828;28;19964;-72
2021/12/03 04:52:58;;;;;;;;;;;3.60;99.90;;;;;;5003743;28;19968;-73
2021/12/03 04:55:23;;;;;;;;;;;3.60;99.90;;;;;;5009480;28;19914;-71
2021/12/03 04:57:50;;;;;;;;;;;3.60;99.90;;;;;;5009882;28;20004;-72
2021/12/03 05:00:18;;;;;;;;;;;3.60;99.90;;;;;;5007031;28;20522;-73
2021/12/03 05:02:44;;;;;;;;;;;3.60;99.90;;;;;;5008077;28;20311;-70
2021/12/03 05:05:10;;;;;;;;;;;3.60;99.90;;;;;;5004813;28;19925;-72
2021/12/03 05:10:04;;;;;;;;;;;3.60;99.90;;;;;;5006075;28;20337;-71
2021/12/03 05:12:30;;;;;;;;;;;3.50;99.90;;;;;;5005319;28;19917;-70
2021/12/03 05:14:55;;;;;;;;;;;3.50;99.90;;;;;;5006519;28;19914;-72
2021/12/03 05:17:21;;;;;;;;;;;3.60;99.90;;;;;;5006495;28;19910;-71
2021/12/03 05:19:46;;;;;;;;;;;3.60;99.90;;;;;;5010911;28;19944;-68
2021/12/03 05:22:13;;;;;;;;;;;3.50;99.90;;;;;;5008909;28;19922;-72
2021/12/03 05:24:38;;;;;;;;;;;3.50;99.90;;;;;;5009023;28;20312;-72
2021/12/03 05:27:04;;;;;;;;;;;3.50;99.90;;;;;;5008260;28;20004;-71
2021/12/03 05:29:29;;;;;;;;;;;3.60;99.90;;;;;;5021207;28;19927;-72
2021/12/03 05:31:55;;;;;;;;;;;3.60;99.90;;;;;;5001322;28;19922;-73
2021/12/03 05:34:20;;;;;;;;;;;3.60;99.90;;;;;;5006221;28;19910;-73
2021/12/03 05:36:46;;;;;;;;;;;3.60;99.90;;;;;;5008013;28;20381;-68
2021/12/03 05:39:12;;;;;;;;;;;3.60;99.90;;;;;;5009840;28;19914;-71
2021/12/03 05:41:37;;;;;;;;;;;3.60;99.90;;;;;;5009370;28;19917;-70
2021/12/03 05:44:03;;;;;;;;;;;3.60;99.90;;;;;;5010096;28;19913;-70
2021/12/03 05:46:29;;;;;;;;;;;3.60;99.90;;;;;;5007846;28;19949;-73
2021/12/03 05:48:54;;;;;;;;;;;3.60;99.90;;;;;;5006447;28;19914;-71
2021/12/03 05:51:20;;;;;;;;;;;3.60;99.90;;;;;;5008734;28;19913;-72
2021/12/03 05:53:46;;;;;;;;;;;3.70;99.90;;;;;;5008004;28;19948;-72
2021/12/03 05:56:11;;;;;;;;;;;3.70;99.90;;;;;;5008267;28;20258;-73
2021/12/03 05:58:36;;;;;;;;;;;3.70;99.90;;;;;;5007250;28;19913;-71
2021/12/03 06:01:02;;;;;;;;;;;3.60;99.90;;;;;;5005376;28;20056;-71
2021/12/03 06:03:28;;;;;;;;;;;3.60;99.90;;;;;;5013505;28;20523;-73
2021/12/03 06:05:53;;;;;;;;;;;3.60;99.90;;;;;;5018592;28;19917;-72
2021/12/03 06:08:19;;;;;;;;;;;3.60;99.90;;;;;;5022121;28;19917;-73
2021/12/03 06:10:44;;;;;;;;;;;3.70;99.90;;;;;;5008229;28;19909;-72
2021/12/03 06:13:10;;;;;;;;;;;3.60;99.90;;;;;;5008882;28;19924;-72
2021/12/03 06:15:35;;;;;;;;;;;3.60;99.90;;;;;;5011260;28;19913;-72
2021/12/03 06:18:02;;;;;;;;;;;3.70;99.90;;;;;;5010982;28;19916;-72
2021/12/03 06:20:27;;;;;;;;;;;3.70;99.90;;;;;;5026851;28;19941;-73
2021/12/03 06:22:52;;;;;;;;;;;3.70;99.90;;;;;;5011148;28;19941;-72
2021/12/03 06:25:18;;;;;;;;;;;3.70;99.90;;;;;;5010318;28;19918;-73
2021/12/03 06:27:44;;;;;;;;;;;3.70;99.90;;;;;;5021998;28;20566;-72
2021/12/03 06:30:11;;;;;;;;;;;3.70;99.90;;;;;;5012200;28;19956;-72
2021/12/03 06:32:37;;;;;;;;;;;3.70;99.90;;;;;;5010083;28;19920;-71
2021/12/03 06:35:04;;;;;;;;;;;3.70;99.90;;;;;;5017782;28;19913;-72
2021/12/03 06:37:29;;;;;;;;;;;3.70;99.90;;;;;;5009294;28;20656;-71
2021/12/03 06:39:55;;;;;;;;;;;3.60;99.90;;;;;;5011008;28;19932;-69
2021/12/03 06:42:21;;;;;;;;;;;3.50;99.90;;;;;;5010543;28;20148;-70
2021/12/03 06:44:46;;;;;;;;;;;3.50;99.90;;;;;;5009304;28;19928;-69
2021/12/03 06:47:11;;;;;;;;;;;3.50;99.90;;;;;;5009854;28;19917;-71
2021/12/03 06:49:37;;;;;;;;;;;3.50;99.90;;;;;;5008178;28;19910;-70
2021/12/03 06:52:08;;;;;;;;;;;3.50;99.90;;;;;;5010024;28;20478;-70
2021/12/03 06:54:34;;;;;;;;;;;3.50;99.90;;;;;;5012422;28;19967;-68
2021/12/03 06:57:01;;;;;;;;;;;3.50;99.90;;;;;;5011257;28;19913;-69
2021/12/03 06:59:27;;;;;;;;;;;3.50;99.90;;;;;;5011652;28;19909;-68
2021/12/03 07:01:53;;;;;;;;;;;3.40;99.90;;;;;;5012500;28;19932;-69
2021/12/03 07:04:20;;;;;;;;;;;3.40;99.90;;;;;;5026606;28;19918;-69
2021/12/03 07:06:46;;;;;;;;;;;3.30;99.90;;;;;;5013041;28;19914;-71
2021/12/03 07:09:11;;;;;;;;;;;3.40;99.90;;;;;;5025531;28;20420;-69
2021/12/03 07:11:37;;;;;;;;;;;3.30;99.90;;;;;;5018935;28;20296;-71
2021/12/03 07:14:03;;;;;;;;;;;3.40;99.90;;;;;;5018198;28;20496;-69
2021/12/03 07:16:28;;;;;;;;;;;3.40;99.90;;;;;;5010745;28;19909;-70
2021/12/03 07:18:54;;;;;;;;;;;3.40;99.90;;;;;;5021860;28;19919;-70
2021/12/03 07:21:20;;;;;;;;;;;3.30;99.90;;;;;;5030926;28;19920;-69
2021/12/03 07:23:47;;;;;;;;;;;3.30;99.90;;;;;;5015772;28;19913;-70
2021/12/03 07:26:13;;;;;;;;;;;3.30;99.90;;;;;;5016118;28;19944;-68
2021/12/03 07:28:38;;;;;;;;;;;3.30;99.90;;;;;;5022323;28;19917;-71
2021/12/03 07:31:04;;;;;;;;;;;3.30;99.90;;;;;;5012956;28;20375;-70
2021/12/03 07:33:31;;;;;;;;;;;3.20;99.90;;;;;;5011131;28;19952;-71
2021/12/03 07:35:57;;;;;;;;;;;3.30;99.90;;;;;;5010922;28;19960;-68
2021/12/03 07:38:23;;;;;;;;;;;3.30;99.90;;;;;;5010680;28;19968;-69
2021/12/03 07:40:48;;;;;;;;;;;3.20;99.90;;;;;;5008846;28;19996;-70
2021/12/03 07:43:16;;;;;;;;;;;3.30;99.90;;;;;;5010166;28;19909;-68
2021/12/03 07:45:42;;;;;;;;;;;3.40;99.90;;;;;;5009738;28;20025;-70
2021/12/03 07:48:08;;;;;;;;;;;3.40;99.90;;;;;;5000845;28;20428;-71
2021/12/03 07:50:35;;;;;;;;;;;3.30;99.90;;;;;;5009146;28;19914;-69
2021/12/03 07:53:02;;;;;;;;;;;3.30;99.90;;;;;;5004215;28;19917;-69
2021/12/03 07:55:27;;;;;;;;;;;3.30;99.90;;;;;;5005858;28;19910;-67
2021/12/03 07:57:55;;;;;;;;;;;3.30;99.90;;;;;;5009227;28;19916;-69
2021/12/03 08:00:20;;;;;;;;;;;3.20;99.90;;;;;;5009730;28;20005;-68
2021/12/03 08:02:45;;;;;;;;;;;3.30;99.90;;;;;;5010712;28;20083;-68
2021/12/03 08:05:11;;;;;;;;;;;3.30;99.90;;;;;;5011245;28;19917;-70
2021/12/03 08:07:36;;;;;;;;;;;3.30;99.90;;;;;;5012721;28;20039;-68
2021/12/03 08:10:03;;;;;;;;;;;3.30;99.90;;;;;;5026437;28;20342;-68
2021/12/03 08:12:28;;;;;;;;;;;3.30;99.90;;;;;;5011747;28;19988;-68
2021/12/03 08:14:54;;;;;;;;;;;3.30;99.90;;;;;;5010801;28;20374;-68
2021/12/03 08:17:19;;;;;;;;;;;3.30;99.90;;;;;;5010115;28;20421;-67
2021/12/03 08:19:45;;;;;;;;;;;3.30;99.90;;;;;;5025207;28;19917;-69
2021/12/03 08:22:10;;;;;;;;;;;3.30;99.90;;;;;;5029478;28;20004;-70
2021/12/03 08:24:36;;;;;;;;;;;3.40;99.90;;;;;;5029699;28;19912;-70
2021/12/03 08:27:01;;;;;;;;;;;3.40;99.90;;;;;;5029375;28;19910;-70
2021/12/03 08:29:27;;;;;;;;;;;3.40;99.90;;;;;;5029265;28;19909;-69
2021/12/03 08:31:53;;;;;;;;;;;3.50;99.90;;;;;;5022541;28;20000;-70
2021/12/03 08:34:18;;;;;;;;;;;3.40;99.90;;;;;;5009535;28;20389;-70
2021/12/03 08:36:44;;;;;;;;;;;3.50;99.90;;;;;;5025240;28;19913;-68
2021/12/03 08:39:09;;;;;;;;;;;3.50;99.90;;;;;;5010165;28;19909;-67
2021/12/03 08:41:35;;;;;;;;;;;3.50;99.90;;;;;;5010419;28;19910;-70
2021/12/03 08:44:02;;;;;;;;;;;3.50;99.90;;;;;;5010818;28;19913;-69
2021/12/03 08:46:32;;;;;;;;;;;3.60;99.90;;;;;;5010486;28;19910;-69
2021/12/03 08:49:27;;;;;;;;;;;3.70;99.90;;;;;;5017999;28;19997;-70
2021/12/03 08:52:10;;;;;;;;;;;3.70;99.90;;;;;;5026392;28;19933;-70
2021/12/03 08:54:49;;;;;;;;;;;3.80;99.90;;;;;;5016069;28;19953;-70
2021/12/03 08:57:15;;;;;;;;;;;3.80;99.90;;;;;;5011363;28;19937;-69
2021/12/03 08:59:41;;;;;;;;;;;3.80;99.90;;;;;;5010295;28;19913;-70
2021/12/03 09:02:06;;;;;;;;;;;3.80;99.90;;;;;;5010093;28;19910;-70
2021/12/03 09:04:32;;;;;;;;;;;3.80;99.90;;;;;;5009355;28;19924;-70
2021/12/03 09:06:58;;;;;;;;;;;3.80;99.90;;;;;;5011534;28;20342;-68
2021/12/03 09:09:24;;;;;;;;;;;3.80;99.90;;;;;;5009125;28;20520;-69
2021/12/03 09:11:50;;;;;;;;;;;3.90;99.90;;;;;;5010895;28;19964;-68
2021/12/03 09:14:29;;;;;;;;;;;3.90;99.90;;;;;;5009601;28;19910;-71
2021/12/03 09:17:06;;;;;;;;;;;3.90;99.90;;;;;;5009627;28;19914;-65
2021/12/03 09:19:39;;;;;;;;;;;3.90;99.90;;;;;;5023246;28;19909;-69
2021/12/03 09:22:06;;;;;;;;;;;3.80;99.90;;;;;;5030814;28;20500;-71
2021/12/03 09:24:35;;;;;;;;;;;3.80;99.90;;;;;;5029480;28;19917;-70
2021/12/03 09:27:01;;;;;;;;;;;3.80;99.90;;;;;;5029303;28;20344;-68
2021/12/03 09:29:32;;;;;;;;;;;3.80;99.90;;;;;;5028758;28;19910;-69
2021/12/03 09:31:59;;;;;;;;;;;3.80;99.90;;;;;;5023347;28;19914;-69
2021/12/03 09:34:25;;;;;;;;;;;3.80;99.90;;;;;;5009522;28;19967;-67
2021/12/03 09:36:51;;;;;;;;;;;3.70;99.90;;;;;;5009221;28;19929;-68
2021/12/03 09:39:22;;;;;;;;;;;3.70;99.90;;;;;;5008942;28;19909;-68
2021/12/03 09:41:49;;;;;;;;;;;3.60;99.90;;;;;;5012716;28;19910;-69
2021/12/03 09:44:16;;;;;;;;;;;3.60;99.90;;;;;;5008710;28;20025;-68
2021/12/03 09:46:41;;;;;;;;;;;3.60;99.90;;;;;;5008786;28;19963;-69
2021/12/03 09:51:53;;;;;;;;;;;3.70;99.90;;;;;;5009545;28;19917;-70
2021/12/03 09:56:54;;;;;;;;;;;3.60;99.90;;;;;;5012033;28;19921;-69
2021/12/03 10:04:56;;;;;;;;;;;3.60;99.90;;;;;;5011062;28;20422;-69
2021/12/03 10:13:02;;;;;;;;;;;3.70;99.90;;;;;;5020243;28;19936;-72
2021/12/03 10:18:06;;;;;;;;;;;3.70;99.90;;;;;;5009673;28;19916;-69
2021/12/03 10:20:57;;;;;;;;;;;3.70;99.90;;;;;;5028240;28;19940;-68
2021/12/03 10:33:59;;;;;;;;;;;3.90;99.90;;;;;;4993708;28;19938;-70
2021/12/03 10:42:46;;;;;;;;;;;4.10;99.90;;;;;;4993397;28;20041;-69
2021/12/03 10:45:27;;;;;;;;;;;4.10;99.90;;;;;;4983161;28;19968;-68
2021/12/03 11:39:10;;;;;;;;;;;4.80;99.90;;;;;;5019163;28;20209;-72
2021/12/03 11:42:11;;;;;;;;;;;4.90;99.90;;;;;;5011825;28;20280;-69
2021/12/03 11:52:58;;;;;;;;;;;5.10;99.90;;;;;;5010160;28;19967;-70
2021/12/03 11:56:13;;;;;;;;;;;5.10;99.90;;;;;;5022628;28;20147;-71
2021/12/03 12:21:34;;;;;;;;;;;5.10;99.90;;;;;;5030574;28;19917;-68
2021/12/03 12:27:23;;;;;;;;;;;5.10;99.90;;;;;;5007280;28;19923;-68
2021/12/03 12:35:37;;;;;;;;;;;5.20;99.90;;;;;;5010804;28;19913;-70
2021/12/03 13:18:49;;;;;;;;;;;4.50;99.90;;;;;;5011060;28;19983;-67
2021/12/03 14:40:15;;;;;;;;;;;4.60;99.90;;;;;;5011127;28;19909;-68
2021/12/03 14:43:38;;;;;;;;;;;4.60;99.90;;;;;;5008291;28;19909;-69
2021/12/03 14:51:03;;;;;;;;;;;4.60;99.90;;;;;;5014015;28;19910;-69
2021/12/03 14:56:03;;;;;;;;;;;4.70;99.90;;;;;;5013509;28;20369;-68
2021/12/03 15:09:22;;;;;;;;;;;4.70;99.90;;;;;;4989634;28;19910;-68
2021/12/03 15:22:23;;;;;;;;;;;4.60;99.90;;;;;;5032958;28;19979;-68
2021/12/03 15:24:59;;;;;;;;;;;4.60;99.90;;;;;;5031115;28;19913;-68
2021/12/03 15:37:51;;;;;;;;;;;4.60;99.90;;;;;;5012080;28;19917;-69
2021/12/03 16:04:34;;;;;;;;;;;4.60;99.90;;;;;;5010104;28;19936;-68
2021/12/03 16:09:58;;;;;;;;;;;4.60;99.90;;;;;;5013079;28;20420;-66
2021/12/03 16:15:09;;;;;;;;;;;4.70;99.90;;;;;;5010792;28;19909;-69
2021/12/03 16:23:09;;;;;;;;;;;4.70;99.90;;;;;;5031761;28;19913;-67
2021/12/03 16:25:56;;;;;;;;;;;4.70;99.90;;;;;;5031393;28;19943;-68
2021/12/03 16:45:18;;;;;;;;;;;4.70;99.90;;;;;;5013424;28;20293;-71
2021/12/03 16:52:51;;;;;;;;;;;4.80;99.90;;;;;;5018143;28;19917;-70
2021/12/03 16:55:17;;;;;;;;;;;4.80;99.90;;;;;;5021616;28;19970;-70
2021/12/03 16:57:44;;;;;;;;;;;4.90;99.90;;;;;;5030083;28;19909;-70
2021/12/03 17:00:38;;;;;;;;;;;4.90;99.90;;;;;;5026938;28;20289;-71
2021/12/03 17:03:12;;;;;;;;;;;4.90;99.90;;;;;;5008672;28;19972;-70
2021/12/03 17:08:47;;;;;;;;;;;4.90;99.90;;;;;;5008888;28;20455;-73
2021/12/03 17:22:08;;;;;;;;;;;4.90;99.90;;;;;;5008173;28;19909;-71
2021/12/03 17:46:28;;;;;;;;;;;4.90;99.90;;;;;;5006620;28;20297;-70
2021/12/03 17:49:01;;;;;;;;;;;4.90;99.90;;;;;;5018159;28;19920;-71
2021/12/03 17:51:44;;;;;;;;;;;4.90;99.90;;;;;;5043073;28;19910;-71
2021/12/03 17:54:39;;;;;;;;;;;4.90;99.90;;;;;;5009444;28;20216;-68
2021/12/03 17:57:04;;;;;;;;;;;4.90;99.90;;;;;;5004187;28;20010;-69
2021/12/03 17:59:42;;;;;;;;;;;4.90;99.90;;;;;;5017128;28;20002;-69
2021/12/03 18:04:41;;;;;;;;;;;4.90;99.90;;;;;;5009737;28;19921;-72
2021/12/03 18:07:13;;;;;;;;;;;5.00;99.90;;;;;;5012495;28;19910;-72
2021/12/03 18:10:16;;;;;;;;;;;5.00;99.90;;;;;;5007942;28;20362;-71
2021/12/03 18:13:15;;;;;;;;;;;5.00;99.90;;;;;;5008475;28;19940;-69
2021/12/03 18:16:05;;;;;;;;;;;5.00;99.90;;;;;;5008022;28;20012;-72
2021/12/03 18:50:59;;;;;;;;;;;5.00;99.90;;;;;;5010441;28;20386;-69
2021/12/03 18:53:40;;;;;;;;;;;5.00;99.90;;;;;;5010727;28;20107;-70
2021/12/03 18:56:15;;;;;;;;;;;5.10;99.90;;;;;;5009269;28;19910;-71
2021/12/03 18:58:40;;;;;;;;;;;4.90;99.90;;;;;;5011346;28;19963;-68
2021/12/03 19:01:06;;;;;;;;;;;4.90;99.90;;;;;;5009359;28;20001;-72
2021/12/03 19:03:49;;;;;;;;;;;4.90;99.90;;;;;;5008407;28;19960;-72
2021/12/03 19:06:30;;;;;;;;;;;4.90;99.90;;;;;;5009563;28;19917;-68
2021/12/03 19:09:03;;;;;;;;;;;5.00;99.90;;;;;;5011696;28;19913;-70
2021/12/03 19:13:57;;;;;;;;;;;5.00;99.90;;;;;;5007714;28;19914;-67
2021/12/03 19:16:24;;;;;;;;;;;5.00;99.90;;;;;;5009210;28;20118;-69
2021/12/03 19:18:52;;;;;;;;;;;4.90;99.90;;;;;;5010445;28;20381;-68
2021/12/03 19:21:22;;;;;;;;;;;4.90;99.90;;;;;;5009398;28;19909;-69
2021/12/03 19:23:49;;;;;;;;;;;5.00;99.90;;;;;;5009464;28;20292;-69
2021/12/03 19:26:14;;;;;;;;;;;5.00;99.90;;;;;;5009051;28;19932;-70
2021/12/03 19:28:41;;;;;;;;;;;5.10;99.90;;;;;;5009546;28;20345;-70
2021/12/03 19:31:06;;;;;;;;;;;5.00;99.90;;;;;;5009413;28;19913;-68
2021/12/03 19:33:33;;;;;;;;;;;5.10;99.90;;;;;;5009062;28;20409;-69
2021/12/03 19:35:59;;;;;;;;;;;5.00;99.90;;;;;;5024965;28;20341;-67
2021/12/03 19:38:25;;;;;;;;;;;5.00;99.90;;;;;;5011315;28;19909;-69
2021/12/03 19:40:55;;;;;;;;;;;5.00;99.90;;;;;;5004434;28;20044;-70
2021/12/03 19:43:27;;;;;;;;;;;5.00;99.90;;;;;;5010974;28;19921;-70
2021/12/03 19:46:02;;;;;;;;;;;5.00;99.90;;;;;;5011011;28;19913;-71
2021/12/03 19:48:35;;;;;;;;;;;5.00;99.90;;;;;;5011047;28;19933;-70
2021/12/03 19:51:01;;;;;;;;;;;5.00;99.90;;;;;;5012177;28;19917;-69
2021/12/03 19:53:28;;;;;;;;;;;4.90;99.90;;;;;;5030756;28;19909;-68
2021/12/03 19:55:54;;;;;;;;;;;4.90;99.90;;;;;;5030998;28;20007;-70
2021/12/03 19:58:20;;;;;;;;;;;5.00;99.90;;;;;;5031108;28;19941;-67
2021/12/03 20:00:47;;;;;;;;;;;5.00;99.90;;;;;;5030454;28;19916;-69
2021/12/03 20:03:12;;;;;;;;;;;5.00;99.90;;;;;;5029918;28;20125;-69
2021/12/03 20:05:38;;;;;;;;;;;5.00;99.90;;;;;;5029966;28;20361;-69
2021/12/03 20:08:05;;;;;;;;;;;5.00;99.90;;;;;;5016355;28;19991;-67
2021/12/03 20:10:34;;;;;;;;;;;5.00;99.90;;;;;;5022192;28;19936;-69
2021/12/03 20:13:00;;;;;;;;;;;5.00;99.90;;;;;;5020162;28;19910;-66
2021/12/03 20:15:37;;;;;;;;;;;5.00;99.90;;;;;;5009950;28;19914;-70
2021/12/03 20:18:23;;;;;;;;;;;4.90;99.90;;;;;;5010009;28;19913;-67
2021/12/03 20:20:49;;;;;;;;;;;5.00;99.90;;;;;;5012547;28;20401;-70
2021/12/03 20:28:40;;;;;;;;;;;4.90;99.90;;;;;;5011981;28;20310;-69
2021/12/03 20:31:08;;;;;;;;;;;4.90;99.90;;;;;;5009759;28;19944;-69
2021/12/03 20:33:53;;;;;;;;;;;4.90;99.90;;;;;;5009517;28;20326;-69
2021/12/03 20:39:24;;;;;;;;;;;4.90;99.90;;;;;;5007740;28;20227;-69
2021/12/03 20:42:14;;;;;;;;;;;4.90;99.90;;;;;;5015175;28;19956;-69
2021/12/03 20:45:00;;;;;;;;;;;4.90;99.90;;;;;;5024803;28;19917;-68
2021/12/03 21:09:08;;;;;;;;;;;5.00;99.90;;;;;;5012591;28;19932;-70
2021/12/03 21:11:36;;;;;;;;;;;5.00;99.90;;;;;;5015191;28;19916;-69
2021/12/03 21:14:04;;;;;;;;;;;5.00;99.90;;;;;;5009104;28;19924;-68
2021/12/03 21:16:52;;;;;;;;;;;5.00;99.90;;;;;;5008981;28;19910;-70
2021/12/03 21:19:36;;;;;;;;;;;5.00;99.90;;;;;;5009318;28;19909;-69
2021/12/03 21:22:19;;;;;;;;;;;5.00;99.90;;;;;;5008482;28;19921;-70
2021/12/03 21:24:47;;;;;;;;;;;5.00;99.90;;;;;;5008591;28;19920;-69
2021/12/03 21:27:31;;;;;;;;;;;5.00;99.90;;;;;;5008539;28;20373;-66
2021/12/03 21:30:16;;;;;;;;;;;4.90;99.90;;;;;;5007806;28;20290;-67
2021/12/03 21:43:15;;;;;;;;;;;4.90;99.90;;;;;;5010257;28;19921;-68
2021/12/03 21:45:41;;;;;;;;;;;4.90;99.90;;;;;;5011192;28;19967;-70
2021/12/03 21:48:07;;;;;;;;;;;4.90;99.90;;;;;;5035522;28;19913;-69
2021/12/03 21:50:32;;;;;;;;;;;5.00;99.90;;;;;;5028160;28;19917;-66
2021/12/03 21:52:58;;;;;;;;;;;5.00;99.90;;;;;;5015768;28;19940;-68
2021/12/03 21:55:24;;;;;;;;;;;5.00;99.90;;;;;;5006913;28;20385;-69
2021/12/03 21:57:50;;;;;;;;;;;4.90;99.90;;;;;;5010916;28;19917;-69
2021/12/03 22:00:16;;;;;;;;;;;5.00;99.90;;;;;;5008858;28;19913;-68
2021/12/03 22:02:41;;;;;;;;;;;5.10;99.90;;;;;;5007836;28;19916;-68
2021/12/03 22:05:07;;;;;;;;;;;5.10;99.90;;;;;;5009031;28;19916;-70
2021/12/03 22:07:33;;;;;;;;;;;5.10;99.90;;;;;;5032307;28;19918;-69
2021/12/03 22:09:58;;;;;;;;;;;5.10;99.90;;;;;;5025436;28;19917;-69
2021/12/03 22:12:24;;;;;;;;;;;5.10;99.90;;;;;;5012379;28;19910;-68
2021/12/03 22:14:49;;;;;;;;;;;5.10;99.90;;;;;;5026641;28;19909;-68
2021/12/03 22:17:15;;;;;;;;;;;5.00;99.90;;;;;;5027435;28;20004;-68